Pinson, Alabama
Current Conditions -  °F | °C
As of 8:53 PM on Sunday 21 Dec 2014 (Local Time) from KBHM Reporting Station
Overcast Overcast  
Wind Chill: 52°   Ceiling: 1300
Heat Index: 52°   Visibility: 10mi
Dew Point: 46°   Wind: 5mph
Humidity: 80%   Direction: 90°E
Pressure: 30.07"   Gusts: NA
Location:  33.69°N, 86.68°W
Report Text: KBHM 220253Z 09004KT 10SM OVC013 11/08 A3007 RMK AO2 SLP183 T01110078 56001
Loading
Personal Weather Stations






























Interactive Weather Map New forecast layout! Learn more

10-Day Weather Forecast

Advertisements
Track Severe Weather on mobile